sensor_id;sensor_type;location;lat;lon;timestamp;P1;durP1;ratioP1;P2;durP2;ratioP2
1380;SDS011;684;48.342;10.096;2022-12-11T00:00:36;32.63;;;17.77;;
1380;SDS011;684;48.342;10.096;2022-12-11T00:03:05;30.60;;;17.47;;
1380;SDS011;684;48.342;10.096;2022-12-11T00:05:32;28.87;;;16.03;;
1380;SDS011;684;48.342;10.096;2022-12-11T00:07:59;27.00;;;16.20;;
1380;SDS011;684;48.342;10.096;2022-12-11T00:10:26;26.33;;;16.17;;
1380;SDS011;684;48.342;10.096;2022-12-11T00:12:53;31.33;;;17.07;;
1380;SDS011;684;48.342;10.096;2022-12-11T00:15:19;31.00;;;16.57;;
1380;SDS011;684;48.342;10.096;2022-12-11T00:17:46;31.07;;;17.50;;
1380;SDS011;684;48.342;10.096;2022-12-11T00:20:14;27.27;;;16.40;;
1380;SDS011;684;48.342;10.096;2022-12-11T00:22:41;27.40;;;14.97;;
1380;SDS011;684;48.342;10.096;2022-12-11T00:25:08;24.23;;;15.10;;
1380;SDS011;684;48.342;10.096;2022-12-11T00:27:35;26.03;;;15.10;;
1380;SDS011;684;48.342;10.096;2022-12-11T00:30:02;26.77;;;14.67;;
1380;SDS011;684;48.342;10.096;2022-12-11T00:32:29;27.80;;;16.63;;
1380;SDS011;684;48.342;10.096;2022-12-11T00:34:56;25.60;;;15.20;;
1380;SDS011;684;48.342;10.096;2022-12-11T00:37:25;28.70;;;17.03;;
1380;SDS011;684;48.342;10.096;2022-12-11T00:39:51;24.77;;;16.60;;
1380;SDS011;684;48.342;10.096;2022-12-11T00:42:18;25.43;;;15.60;;
1380;SDS011;684;48.342;10.096;2022-12-11T00:44:45;26.90;;;15.73;;
1380;SDS011;684;48.342;10.096;2022-12-11T00:47:12;26.40;;;14.80;;
1380;SDS011;684;48.342;10.096;2022-12-11T00:49:38;27.53;;;15.20;;
1380;SDS011;684;48.342;10.096;2022-12-11T00:52:05;27.93;;;16.30;;
1380;SDS011;684;48.342;10.096;2022-12-11T00:54:33;24.67;;;14.70;;
1380;SDS011;684;48.342;10.096;2022-12-11T00:57:00;26.97;;;15.70;;
1380;SDS011;684;48.342;10.096;2022-12-11T00:59:27;24.00;;;14.30;;
1380;SDS011;684;48.342;10.096;2022-12-11T01:01:54;26.07;;;14.30;;
1380;SDS011;684;48.342;10.096;2022-12-11T01:04:20;27.60;;;16.43;;
1380;SDS011;684;48.342;10.096;2022-12-11T01:06:47;23.90;;;15.10;;
1380;SDS011;684;48.342;10.096;2022-12-11T01:09:14;25.23;;;14.20;;
1380;SDS011;684;48.342;10.096;2022-12-11T01:12:00;24.70;;;13.43;;
1380;SDS011;684;48.342;10.096;2022-12-11T01:14:26;22.93;;;14.03;;
1380;SDS011;684;48.342;10.096;2022-12-11T01:16:53;26.63;;;15.23;;
1380;SDS011;684;48.342;10.096;2022-12-11T01:19:20;25.10;;;13.77;;
1380;SDS011;684;48.342;10.096;2022-12-11T01:21:47;23.37;;;14.50;;
1380;SDS011;684;48.342;10.096;2022-12-11T01:24:13;29.07;;;16.30;;
1380;SDS011;684;48.342;10.096;2022-12-11T01:26:40;25.67;;;14.60;;
1380;SDS011;684;48.342;10.096;2022-12-11T01:29:08;23.53;;;13.80;;
1380;SDS011;684;48.342;10.096;2022-12-11T01:31:35;26.20;;;15.00;;
1380;SDS011;684;48.342;10.096;2022-12-11T01:34:02;26.87;;;14.97;;
1380;SDS011;684;48.342;10.096;2022-12-11T01:36:29;26.90;;;16.97;;
1380;SDS011;684;48.342;10.096;2022-12-11T01:38:56;29.27;;;16.73;;
1380;SDS011;684;48.342;10.096;2022-12-11T01:41:23;26.03;;;15.40;;
1380;SDS011;684;48.342;10.096;2022-12-11T01:43:59;24.87;;;14.90;;
1380;SDS011;684;48.342;10.096;2022-12-11T01:46:31;26.97;;;16.30;;
1380;SDS011;684;48.342;10.096;2022-12-11T01:48:59;28.00;;;16.30;;
1380;SDS011;684;48.342;10.096;2022-12-11T01:51:27;29.90;;;16.57;;
1380;SDS011;684;48.342;10.096;2022-12-11T01:53:57;23.40;;;13.70;;
1380;SDS011;684;48.342;10.096;2022-12-11T01:56:27;21.63;;;14.90;;
1380;SDS011;684;48.342;10.096;2022-12-11T01:58:58;28.70;;;15.80;;
1380;SDS011;684;48.342;10.096;2022-12-11T02:01:33;29.30;;;15.90;;
1380;SDS011;684;48.342;10.096;2022-12-11T02:04:04;28.30;;;16.20;;
1380;SDS011;684;48.342;10.096;2022-12-11T02:06:34;26.50;;;16.87;;
1380;SDS011;684;48.342;10.096;2022-12-11T02:09:03;27.83;;;15.70;;
1380;SDS011;684;48.342;10.096;2022-12-11T02:11:34;26.00;;;15.43;;
1380;SDS011;684;48.342;10.096;2022-12-11T02:14:07;28.10;;;16.50;;
1380;SDS011;684;48.342;10.096;2022-12-11T02:16:45;25.87;;;16.10;;
1380;SDS011;684;48.342;10.096;2022-12-11T02:19:17;23.87;;;13.80;;
1380;SDS011;684;48.342;10.096;2022-12-11T02:21:56;27.17;;;16.50;;
1380;SDS011;684;48.342;10.096;2022-12-11T02:24:34;23.17;;;14.50;;
1380;SDS011;684;48.342;10.096;2022-12-11T02:27:19;25.73;;;14.33;;
1380;SDS011;684;48.342;10.096;2022-12-11T02:29:54;23.97;;;14.60;;
1380;SDS011;684;48.342;10.096;2022-12-11T02:32:29;28.57;;;16.13;;
1380;SDS011;684;48.342;10.096;2022-12-11T02:35:02;23.23;;;14.07;;
1380;SDS011;684;48.342;10.096;2022-12-11T02:37:34;26.10;;;16.43;;
1380;SDS011;684;48.342;10.096;2022-12-11T02:40:03;24.17;;;15.47;;
1380;SDS011;684;48.342;10.096;2022-12-11T02:42:33;25.00;;;14.90;;
1380;SDS011;684;48.342;10.096;2022-12-11T02:45:05;23.17;;;14.40;;
1380;SDS011;684;48.342;10.096;2022-12-11T02:47:34;24.90;;;14.53;;
1380;SDS011;684;48.342;10.096;2022-12-11T02:50:03;28.57;;;16.17;;
1380;SDS011;684;48.342;10.096;2022-12-11T02:52:35;27.93;;;15.70;;
1380;SDS011;684;48.342;10.096;2022-12-11T02:55:04;28.00;;;14.83;;
1380;SDS011;684;48.342;10.096;2022-12-11T02:57:35;30.30;;;17.63;;
1380;SDS011;684;48.342;10.096;2022-12-11T03:00:07;30.83;;;15.80;;
1380;SDS011;684;48.342;10.096;2022-12-11T03:02:35;23.47;;;14.77;;
1380;SDS011;684;48.342;10.096;2022-12-11T03:05:02;24.57;;;14.70;;
1380;SDS011;684;48.342;10.096;2022-12-11T03:07:30;24.37;;;14.90;;
1380;SDS011;684;48.342;10.096;2022-12-11T03:10:00;27.57;;;15.93;;
1380;SDS011;684;48.342;10.096;2022-12-11T03:12:28;25.17;;;16.03;;
1380;SDS011;684;48.342;10.096;2022-12-11T03:14:58;23.90;;;14.90;;
1380;SDS011;684;48.342;10.096;2022-12-11T03:17:29;26.77;;;15.33;;
1380;SDS011;684;48.342;10.096;2022-12-11T03:20:04;23.97;;;13.53;;
1380;SDS011;684;48.342;10.096;2022-12-11T03:22:38;25.50;;;15.10;;
1380;SDS011;684;48.342;10.096;2022-12-11T03:25:11;24.37;;;15.80;;
1380;SDS011;684;48.342;10.096;2022-12-11T03:27:44;26.47;;;16.57;;
1380;SDS011;684;48.342;10.096;2022-12-11T03:30:16;24.43;;;15.03;;
1380;SDS011;684;48.342;10.096;2022-12-11T03:32:48;22.87;;;14.57;;
1380;SDS011;684;48.342;10.096;2022-12-11T03:35:18;31.30;;;15.90;;
1380;SDS011;684;48.342;10.096;2022-12-11T03:37:50;24.40;;;13.73;;
1380;SDS011;684;48.342;10.096;2022-12-11T03:40:18;25.90;;;15.43;;
1380;SDS011;684;48.342;10.096;2022-12-11T03:42:47;27.93;;;16.03;;
1380;SDS011;684;48.342;10.096;2022-12-11T03:45:16;25.17;;;14.03;;
1380;SDS011;684;48.342;10.096;2022-12-11T03:47:46;25.33;;;14.50;;
1380;SDS011;684;48.342;10.096;2022-12-11T03:50:15;21.40;;;13.57;;
1380;SDS011;684;48.342;10.096;2022-12-11T03:52:44;25.90;;;14.90;;
1380;SDS011;684;48.342;10.096;2022-12-11T03:55:13;26.80;;;15.47;;
1380;SDS011;684;48.342;10.096;2022-12-11T03:57:42;24.60;;;13.33;;
1380;SDS011;684;48.342;10.096;2022-12-11T04:00:09;29.23;;;15.90;;
1380;SDS011;684;48.342;10.096;2022-12-11T04:02:39;23.73;;;13.20;;
1380;SDS011;684;48.342;10.096;2022-12-11T04:05:08;22.33;;;14.40;;
1380;SDS011;684;48.342;10.096;2022-12-11T04:07:36;22.70;;;12.67;;
1380;SDS011;684;48.342;10.096;2022-12-11T04:10:03;22.30;;;14.40;;
1380;SDS011;684;48.342;10.096;2022-12-11T04:12:30;21.27;;;13.53;;
1380;SDS011;684;48.342;10.096;2022-12-11T04:14:57;25.93;;;13.43;;
1380;SDS011;684;48.342;10.096;2022-12-11T04:17:26;24.30;;;14.40;;
1380;SDS011;684;48.342;10.096;2022-12-11T04:20:12;20.20;;;13.70;;
1380;SDS011;684;48.342;10.096;2022-12-11T04:22:56;21.90;;;12.27;;
1380;SDS011;684;48.342;10.096;2022-12-11T04:25:40;19.97;;;11.73;;
1380;SDS011;684;48.342;10.096;2022-12-11T04:28:07;18.70;;;11.90;;
1380;SDS011;684;48.342;10.096;2022-12-11T04:30:34;22.10;;;13.23;;
1380;SDS011;684;48.342;10.096;2022-12-11T04:33:01;21.63;;;13.70;;
1380;SDS011;684;48.342;10.096;2022-12-11T04:35:29;19.40;;;11.83;;
1380;SDS011;684;48.342;10.096;2022-12-11T04:37:55;23.67;;;13.83;;
1380;SDS011;684;48.342;10.096;2022-12-11T04:40:23;19.50;;;12.17;;
1380;SDS011;684;48.342;10.096;2022-12-11T04:42:50;21.53;;;13.93;;
1380;SDS011;684;48.342;10.096;2022-12-11T04:45:17;22.07;;;13.60;;
1380;SDS011;684;48.342;10.096;2022-12-11T04:47:43;23.30;;;13.47;;
1380;SDS011;684;48.342;10.096;2022-12-11T04:50:11;21.23;;;12.80;;
1380;SDS011;684;48.342;10.096;2022-12-11T04:52:40;23.80;;;13.43;;
1380;SDS011;684;48.342;10.096;2022-12-11T04:55:08;24.43;;;13.27;;
1380;SDS011;684;48.342;10.096;2022-12-11T04:57:36;22.37;;;13.73;;
1380;SDS011;684;48.342;10.096;2022-12-11T05:00:03;19.00;;;12.50;;
1380;SDS011;684;48.342;10.096;2022-12-11T05:02:33;24.90;;;13.60;;
1380;SDS011;684;48.342;10.096;2022-12-11T05:05:00;20.43;;;13.07;;
1380;SDS011;684;48.342;10.096;2022-12-11T05:07:28;22.47;;;13.20;;
1380;SDS011;684;48.342;10.096;2022-12-11T05:09:56;22.07;;;13.37;;
1380;SDS011;684;48.342;10.096;2022-12-11T05:12:23;20.90;;;12.60;;
1380;SDS011;684;48.342;10.096;2022-12-11T05:14:50;21.70;;;13.50;;
1380;SDS011;684;48.342;10.096;2022-12-11T05:17:18;21.50;;;13.90;;
1380;SDS011;684;48.342;10.096;2022-12-11T05:19:46;19.87;;;13.03;;
1380;SDS011;684;48.342;10.096;2022-12-11T05:22:13;26.00;;;13.40;;
1380;SDS011;684;48.342;10.096;2022-12-11T05:24:40;25.20;;;13.97;;
1380;SDS011;684;48.342;10.096;2022-12-11T05:27:08;24.20;;;13.93;;
1380;SDS011;684;48.342;10.096;2022-12-11T05:29:36;21.70;;;13.50;;
1380;SDS011;684;48.342;10.096;2022-12-11T05:32:02;22.90;;;13.50;;
1380;SDS011;684;48.342;10.096;2022-12-11T05:34:30;21.77;;;14.37;;
1380;SDS011;684;48.342;10.096;2022-12-11T05:36:56;18.50;;;11.30;;
1380;SDS011;684;48.342;10.096;2022-12-11T05:39:23;21.50;;;12.53;;
1380;SDS011;684;48.342;10.096;2022-12-11T05:41:50;20.70;;;11.80;;
1380;SDS011;684;48.342;10.096;2022-12-11T05:44:18;17.03;;;10.27;;
1380;SDS011;684;48.342;10.096;2022-12-11T05:46:45;19.17;;;11.40;;
1380;SDS011;684;48.342;10.096;2022-12-11T05:49:12;22.07;;;12.43;;
1380;SDS011;684;48.342;10.096;2022-12-11T05:51:39;19.97;;;12.50;;
1380;SDS011;684;48.342;10.096;2022-12-11T05:54:07;21.80;;;11.90;;
1380;SDS011;684;48.342;10.096;2022-12-11T05:56:35;19.23;;;12.07;;
1380;SDS011;684;48.342;10.096;2022-12-11T05:59:03;21.30;;;11.50;;
1380;SDS011;684;48.342;10.096;2022-12-11T06:01:32;22.57;;;13.20;;
1380;SDS011;684;48.342;10.096;2022-12-11T06:04:02;21.80;;;12.60;;
1380;SDS011;684;48.342;10.096;2022-12-11T06:06:30;20.27;;;11.67;;
1380;SDS011;684;48.342;10.096;2022-12-11T06:08:58;18.10;;;11.20;;
1380;SDS011;684;48.342;10.096;2022-12-11T06:11:26;24.50;;;13.20;;
1380;SDS011;684;48.342;10.096;2022-12-11T06:13:55;22.40;;;12.33;;
1380;SDS011;684;48.342;10.096;2022-12-11T06:16:22;21.80;;;11.80;;
1380;SDS011;684;48.342;10.096;2022-12-11T06:18:50;21.30;;;13.77;;
1380;SDS011;684;48.342;10.096;2022-12-11T06:21:18;27.90;;;12.60;;
1380;SDS011;684;48.342;10.096;2022-12-11T06:23:47;21.10;;;11.70;;
1380;SDS011;684;48.342;10.096;2022-12-11T06:26:15;21.60;;;12.70;;
1380;SDS011;684;48.342;10.096;2022-12-11T06:28:43;24.80;;;12.73;;
1380;SDS011;684;48.342;10.096;2022-12-11T06:31:10;26.93;;;13.80;;
1380;SDS011;684;48.342;10.096;2022-12-11T06:33:37;22.23;;;13.47;;
1380;SDS011;684;48.342;10.096;2022-12-11T06:36:07;25.23;;;12.93;;
1380;SDS011;684;48.342;10.096;2022-12-11T06:38:37;22.00;;;12.73;;
1380;SDS011;684;48.342;10.096;2022-12-11T06:41:04;21.37;;;13.40;;
1380;SDS011;684;48.342;10.096;2022-12-11T06:43:32;20.47;;;12.03;;
1380;SDS011;684;48.342;10.096;2022-12-11T06:46:02;21.20;;;12.80;;
1380;SDS011;684;48.342;10.096;2022-12-11T06:48:30;21.37;;;12.10;;
1380;SDS011;684;48.342;10.096;2022-12-11T06:50:57;23.53;;;13.30;;
1380;SDS011;684;48.342;10.096;2022-12-11T06:53:25;25.30;;;13.40;;
1380;SDS011;684;48.342;10.096;2022-12-11T06:55:52;18.53;;;12.37;;
1380;SDS011;684;48.342;10.096;2022-12-11T06:58:18;21.63;;;13.20;;
1380;SDS011;684;48.342;10.096;2022-12-11T07:00:45;22.40;;;13.67;;
1380;SDS011;684;48.342;10.096;2022-12-11T07:03:12;23.13;;;11.70;;
1380;SDS011;684;48.342;10.096;2022-12-11T07:05:39;23.17;;;13.30;;
1380;SDS011;684;48.342;10.096;2022-12-11T07:08:05;21.50;;;12.17;;
1380;SDS011;684;48.342;10.096;2022-12-11T07:10:34;17.73;;;11.17;;
1380;SDS011;684;48.342;10.096;2022-12-11T07:13:00;21.53;;;11.70;;
1380;SDS011;684;48.342;10.096;2022-12-11T07:15:27;23.67;;;12.93;;
1380;SDS011;684;48.342;10.096;2022-12-11T07:17:54;21.27;;;12.03;;
1380;SDS011;684;48.342;10.096;2022-12-11T07:20:21;19.20;;;12.77;;
1380;SDS011;684;48.342;10.096;2022-12-11T07:22:48;20.83;;;12.97;;
1380;SDS011;684;48.342;10.096;2022-12-11T07:25:15;23.00;;;13.47;;
1380;SDS011;684;48.342;10.096;2022-12-11T07:27:43;22.40;;;12.33;;
1380;SDS011;684;48.342;10.096;2022-12-11T07:30:10;17.33;;;10.63;;
1380;SDS011;684;48.342;10.096;2022-12-11T07:32:38;18.23;;;10.43;;
1380;SDS011;684;48.342;10.096;2022-12-11T07:35:05;20.33;;;13.07;;
1380;SDS011;684;48.342;10.096;2022-12-11T07:37:32;18.83;;;11.57;;
1380;SDS011;684;48.342;10.096;2022-12-11T07:39:59;21.00;;;11.30;;
1380;SDS011;684;48.342;10.096;2022-12-11T07:42:25;21.03;;;12.00;;
1380;SDS011;684;48.342;10.096;2022-12-11T07:44:55;21.47;;;12.57;;
1380;SDS011;684;48.342;10.096;2022-12-11T07:47:21;20.30;;;11.47;;
1380;SDS011;684;48.342;10.096;2022-12-11T07:49:48;19.07;;;11.53;;
1380;SDS011;684;48.342;10.096;2022-12-11T07:52:15;18.17;;;11.43;;
1380;SDS011;684;48.342;10.096;2022-12-11T07:54:42;19.30;;;12.37;;
1380;SDS011;684;48.342;10.096;2022-12-11T07:57:08;18.90;;;11.17;;
1380;SDS011;684;48.342;10.096;2022-12-11T07:59:35;17.70;;;11.10;;
1380;SDS011;684;48.342;10.096;2022-12-11T08:02:03;19.00;;;10.70;;
1380;SDS011;684;48.342;10.096;2022-12-11T08:04:30;18.27;;;10.97;;
1380;SDS011;684;48.342;10.096;2022-12-11T08:06:57;20.13;;;11.93;;
1380;SDS011;684;48.342;10.096;2022-12-11T08:09:24;19.20;;;11.80;;
1380;SDS011;684;48.342;10.096;2022-12-11T08:11:51;20.20;;;12.97;;
1380;SDS011;684;48.342;10.096;2022-12-11T08:14:17;19.30;;;11.77;;
1380;SDS011;684;48.342;10.096;2022-12-11T08:16:45;18.00;;;11.87;;
1380;SDS011;684;48.342;10.096;2022-12-11T08:19:13;15.40;;;10.10;;
1380;SDS011;684;48.342;10.096;2022-12-11T08:21:40;16.00;;;10.07;;
1380;SDS011;684;48.342;10.096;2022-12-11T08:24:07;15.40;;;10.43;;
1380;SDS011;684;48.342;10.096;2022-12-11T08:26:35;14.33;;;9.90;;
1380;SDS011;684;48.342;10.096;2022-12-11T08:29:02;16.03;;;9.43;;
1380;SDS011;684;48.342;10.096;2022-12-11T08:31:29;14.83;;;9.90;;
1380;SDS011;684;48.342;10.096;2022-12-11T08:33:57;18.27;;;11.60;;
1380;SDS011;684;48.342;10.096;2022-12-11T08:36:25;23.07;;;14.00;;
1380;SDS011;684;48.342;10.096;2022-12-11T08:38:53;16.23;;;10.10;;
1380;SDS011;684;48.342;10.096;2022-12-11T08:41:21;16.20;;;10.97;;
1380;SDS011;684;48.342;10.096;2022-12-11T08:43:49;14.33;;;9.60;;
1380;SDS011;684;48.342;10.096;2022-12-11T08:46:19;16.10;;;10.53;;
1380;SDS011;684;48.342;10.096;2022-12-11T08:48:47;14.33;;;10.20;;
1380;SDS011;684;48.342;10.096;2022-12-11T08:51:14;16.00;;;10.77;;
1380;SDS011;684;48.342;10.096;2022-12-11T08:53:45;16.80;;;9.80;;
1380;SDS011;684;48.342;10.096;2022-12-11T08:56:13;13.77;;;10.13;;
1380;SDS011;684;48.342;10.096;2022-12-11T08:58:41;15.33;;;11.40;;
1380;SDS011;684;48.342;10.096;2022-12-11T09:01:08;15.20;;;10.20;;
1380;SDS011;684;48.342;10.096;2022-12-11T09:03:38;15.00;;;10.60;;
1380;SDS011;684;48.342;10.096;2022-12-11T09:06:05;14.67;;;9.93;;
1380;SDS011;684;48.342;10.096;2022-12-11T09:08:33;15.90;;;10.00;;
1380;SDS011;684;48.342;10.096;2022-12-11T09:11:05;16.67;;;10.43;;
1380;SDS011;684;48.342;10.096;2022-12-11T09:13:33;15.30;;;9.73;;
1380;SDS011;684;48.342;10.096;2022-12-11T09:16:02;12.90;;;8.70;;
1380;SDS011;684;48.342;10.096;2022-12-11T09:18:30;15.97;;;10.67;;
1380;SDS011;684;48.342;10.096;2022-12-11T09:20:57;15.00;;;10.03;;
1380;SDS011;684;48.342;10.096;2022-12-11T09:23:25;14.90;;;10.03;;
1380;SDS011;684;48.342;10.096;2022-12-11T09:25:52;15.37;;;10.90;;
1380;SDS011;684;48.342;10.096;2022-12-11T09:28:20;15.83;;;9.90;;
1380;SDS011;684;48.342;10.096;2022-12-11T09:30:47;15.37;;;10.60;;
1380;SDS011;684;48.342;10.096;2022-12-11T09:33:14;14.70;;;10.90;;
1380;SDS011;684;48.342;10.096;2022-12-11T09:35:40;14.50;;;10.43;;
1380;SDS011;684;48.342;10.096;2022-12-11T09:38:08;15.77;;;10.40;;
1380;SDS011;684;48.342;10.096;2022-12-11T09:40:38;14.43;;;10.23;;
1380;SDS011;684;48.342;10.096;2022-12-11T09:43:08;14.07;;;10.23;;
1380;SDS011;684;48.342;10.096;2022-12-11T09:45:49;16.40;;;10.97;;
1380;SDS011;684;48.342;10.096;2022-12-11T09:48:17;13.53;;;9.27;;
1380;SDS011;684;48.342;10.096;2022-12-11T09:50:48;13.83;;;9.37;;
1380;SDS011;684;48.342;10.096;2022-12-11T09:53:17;13.63;;;9.43;;
1380;SDS011;684;48.342;10.096;2022-12-11T09:55:51;13.97;;;9.30;;
1380;SDS011;684;48.342;10.096;2022-12-11T09:58:22;14.23;;;9.87;;
1380;SDS011;684;48.342;10.096;2022-12-11T10:00:56;14.20;;;9.33;;
1380;SDS011;684;48.342;10.096;2022-12-11T10:06:27;13.13;;;9.33;;
1380;SDS011;684;48.342;10.096;2022-12-11T10:08:59;12.67;;;8.73;;
1380;SDS011;684;48.342;10.096;2022-12-11T10:11:44;16.20;;;9.50;;
1380;SDS011;684;48.342;10.096;2022-12-11T10:14:23;13.97;;;9.70;;
1380;SDS011;684;48.342;10.096;2022-12-11T10:16:59;12.90;;;9.70;;
1380;SDS011;684;48.342;10.096;2022-12-11T10:19:30;13.77;;;9.07;;
1380;SDS011;684;48.342;10.096;2022-12-11T10:21:58;15.60;;;11.00;;
1380;SDS011;684;48.342;10.096;2022-12-11T10:24:27;14.10;;;10.30;;
1380;SDS011;684;48.342;10.096;2022-12-11T10:26:58;17.10;;;11.90;;
1380;SDS011;684;48.342;10.096;2022-12-11T10:29:34;17.10;;;12.53;;
1380;SDS011;684;48.342;10.096;2022-12-11T10:32:02;13.47;;;9.97;;
1380;SDS011;684;48.342;10.096;2022-12-11T10:34:32;16.87;;;10.33;;
1380;SDS011;684;48.342;10.096;2022-12-11T10:37:01;12.77;;;8.70;;
1380;SDS011;684;48.342;10.096;2022-12-11T10:39:28;16.40;;;9.57;;
1380;SDS011;684;48.342;10.096;2022-12-11T10:41:55;12.57;;;9.43;;
1380;SDS011;684;48.342;10.096;2022-12-11T10:44:23;13.33;;;10.47;;
1380;SDS011;684;48.342;10.096;2022-12-11T10:47:00;13.73;;;8.87;;
1380;SDS011;684;48.342;10.096;2022-12-11T10:49:30;15.60;;;9.87;;
1380;SDS011;684;48.342;10.096;2022-12-11T10:51:58;12.17;;;9.10;;
1380;SDS011;684;48.342;10.096;2022-12-11T10:54:31;12.50;;;9.00;;
1380;SDS011;684;48.342;10.096;2022-12-11T10:57:02;14.87;;;10.70;;
1380;SDS011;684;48.342;10.096;2022-12-11T10:59:34;11.60;;;9.27;;
1380;SDS011;684;48.342;10.096;2022-12-11T11:02:05;11.60;;;8.47;;
1380;SDS011;684;48.342;10.096;2022-12-11T11:04:43;11.80;;;8.40;;
1380;SDS011;684;48.342;10.096;2022-12-11T11:07:11;11.67;;;7.83;;
1380;SDS011;684;48.342;10.096;2022-12-11T11:09:39;12.83;;;8.33;;
1380;SDS011;684;48.342;10.096;2022-12-11T11:12:16;12.03;;;8.70;;
1380;SDS011;684;48.342;10.096;2022-12-11T11:14:44;10.70;;;8.13;;
1380;SDS011;684;48.342;10.096;2022-12-11T11:17:15;11.57;;;8.77;;
1380;SDS011;684;48.342;10.096;2022-12-11T11:19:44;11.60;;;8.60;;
1380;SDS011;684;48.342;10.096;2022-12-11T11:22:13;11.90;;;8.33;;
1380;SDS011;684;48.342;10.096;2022-12-11T11:24:42;13.47;;;10.70;;
1380;SDS011;684;48.342;10.096;2022-12-11T11:27:26;15.20;;;11.23;;
1380;SDS011;684;48.342;10.096;2022-12-11T11:29:56;17.80;;;14.40;;
1380;SDS011;684;48.342;10.096;2022-12-11T11:32:27;13.40;;;10.00;;
1380;SDS011;684;48.342;10.096;2022-12-11T11:35:05;14.83;;;10.50;;
1380;SDS011;684;48.342;10.096;2022-12-11T11:37:40;13.03;;;10.73;;
1380;SDS011;684;48.342;10.096;2022-12-11T11:40:12;18.00;;;13.00;;
1380;SDS011;684;48.342;10.096;2022-12-11T11:42:44;14.07;;;9.87;;
1380;SDS011;684;48.342;10.096;2022-12-11T11:45:18;13.63;;;8.80;;
1380;SDS011;684;48.342;10.096;2022-12-11T11:47:53;12.80;;;9.00;;
1380;SDS011;684;48.342;10.096;2022-12-11T11:50:25;10.97;;;8.00;;
1380;SDS011;684;48.342;10.096;2022-12-11T11:52:59;13.47;;;8.80;;
1380;SDS011;684;48.342;10.096;2022-12-11T11:55:32;12.20;;;8.20;;
1380;SDS011;684;48.342;10.096;2022-12-11T11:58:06;13.30;;;9.50;;
1380;SDS011;684;48.342;10.096;2022-12-11T12:00:39;13.63;;;9.20;;
1380;SDS011;684;48.342;10.096;2022-12-11T12:03:09;13.27;;;9.17;;
1380;SDS011;684;48.342;10.096;2022-12-11T12:05:40;12.50;;;9.17;;
1380;SDS011;684;48.342;10.096;2022-12-11T12:08:16;14.80;;;9.23;;
1380;SDS011;684;48.342;10.096;2022-12-11T12:10:52;13.60;;;8.93;;
1380;SDS011;684;48.342;10.096;2022-12-11T12:13:27;13.87;;;9.00;;
1380;SDS011;684;48.342;10.096;2022-12-11T12:16:03;17.53;;;11.90;;
1380;SDS011;684;48.342;10.096;2022-12-11T12:18:38;15.13;;;11.20;;
1380;SDS011;684;48.342;10.096;2022-12-11T12:21:12;13.73;;;9.83;;
1380;SDS011;684;48.342;10.096;2022-12-11T12:23:52;13.93;;;9.13;;
1380;SDS011;684;48.342;10.096;2022-12-11T12:26:27;15.93;;;10.33;;
1380;SDS011;684;48.342;10.096;2022-12-11T12:28:59;13.00;;;8.87;;
1380;SDS011;684;48.342;10.096;2022-12-11T12:31:40;13.37;;;10.20;;
1380;SDS011;684;48.342;10.096;2022-12-11T12:34:16;14.63;;;10.10;;
1380;SDS011;684;48.342;10.096;2022-12-11T12:36:55;13.60;;;9.97;;
1380;SDS011;684;48.342;10.096;2022-12-11T12:39:32;17.87;;;11.77;;
1380;SDS011;684;48.342;10.096;2022-12-11T12:42:04;23.53;;;11.27;;
1380;SDS011;684;48.342;10.096;2022-12-11T12:44:40;15.23;;;9.70;;
1380;SDS011;684;48.342;10.096;2022-12-11T12:47:15;16.03;;;10.27;;
1380;SDS011;684;48.342;10.096;2022-12-11T12:49:45;14.57;;;9.80;;
1380;SDS011;684;48.342;10.096;2022-12-11T12:52:14;16.63;;;10.30;;
1380;SDS011;684;48.342;10.096;2022-12-11T12:54:44;15.63;;;10.70;;
1380;SDS011;684;48.342;10.096;2022-12-11T12:57:29;15.30;;;10.00;;
1380;SDS011;684;48.342;10.096;2022-12-11T12:59:57;17.20;;;11.53;;
1380;SDS011;684;48.342;10.096;2022-12-11T13:02:24;13.07;;;9.20;;
1380;SDS011;684;48.342;10.096;2022-12-11T13:04:57;15.80;;;10.23;;
1380;SDS011;684;48.342;10.096;2022-12-11T13:07:26;15.50;;;10.50;;
1380;SDS011;684;48.342;10.096;2022-12-11T13:09:55;15.37;;;9.57;;
1380;SDS011;684;48.342;10.096;2022-12-11T13:12:32;15.87;;;9.13;;
1380;SDS011;684;48.342;10.096;2022-12-11T13:17:48;15.63;;;10.73;;
1380;SDS011;684;48.342;10.096;2022-12-11T13:20:18;13.67;;;9.37;;
1380;SDS011;684;48.342;10.096;2022-12-11T13:22:48;19.93;;;11.83;;
1380;SDS011;684;48.342;10.096;2022-12-11T13:25:20;17.30;;;12.20;;
1380;SDS011;684;48.342;10.096;2022-12-11T13:27:49;17.90;;;11.83;;
1380;SDS011;684;48.342;10.096;2022-12-11T13:30:20;17.47;;;11.97;;
1380;SDS011;684;48.342;10.096;2022-12-11T13:32:53;17.70;;;9.57;;
1380;SDS011;684;48.342;10.096;2022-12-11T13:35:28;16.27;;;10.60;;
1380;SDS011;684;48.342;10.096;2022-12-11T13:37:57;15.63;;;10.17;;
1380;SDS011;684;48.342;10.096;2022-12-11T13:40:32;15.93;;;10.50;;
1380;SDS011;684;48.342;10.096;2022-12-11T13:43:04;17.40;;;12.03;;
1380;SDS011;684;48.342;10.096;2022-12-11T13:45:36;13.97;;;9.20;;
1380;SDS011;684;48.342;10.096;2022-12-11T13:48:12;16.23;;;9.30;;
1380;SDS011;684;48.342;10.096;2022-12-11T13:50:46;16.30;;;10.03;;
1380;SDS011;684;48.342;10.096;2022-12-11T13:53:15;14.67;;;8.90;;
1380;SDS011;684;48.342;10.096;2022-12-11T13:55:43;16.00;;;10.30;;
1380;SDS011;684;48.342;10.096;2022-12-11T13:58:17;21.37;;;13.70;;
1380;SDS011;684;48.342;10.096;2022-12-11T14:00:52;16.47;;;10.40;;
1380;SDS011;684;48.342;10.096;2022-12-11T14:03:25;13.80;;;9.70;;
1380;SDS011;684;48.342;10.096;2022-12-11T14:05:54;15.80;;;8.90;;
1380;SDS011;684;48.342;10.096;2022-12-11T14:08:21;15.90;;;9.53;;
1380;SDS011;684;48.342;10.096;2022-12-11T14:10:51;15.07;;;9.30;;
1380;SDS011;684;48.342;10.096;2022-12-11T14:13:20;16.33;;;9.67;;
1380;SDS011;684;48.342;10.096;2022-12-11T14:15:50;14.77;;;8.60;;
1380;SDS011;684;48.342;10.096;2022-12-11T14:18:20;24.37;;;15.20;;
1380;SDS011;684;48.342;10.096;2022-12-11T14:20:53;15.70;;;10.70;;
1380;SDS011;684;48.342;10.096;2022-12-11T14:23:22;14.00;;;8.20;;
1380;SDS011;684;48.342;10.096;2022-12-11T14:25:51;13.20;;;8.73;;
1380;SDS011;684;48.342;10.096;2022-12-11T14:28:18;14.47;;;9.40;;
1380;SDS011;684;48.342;10.096;2022-12-11T14:30:48;19.03;;;9.50;;
1380;SDS011;684;48.342;10.096;2022-12-11T14:33:16;22.00;;;12.60;;
1380;SDS011;684;48.342;10.096;2022-12-11T14:35:46;15.07;;;8.80;;
1380;SDS011;684;48.342;10.096;2022-12-11T14:38:16;15.35;;;9.00;;
1380;SDS011;684;48.342;10.096;2022-12-11T14:40:46;19.90;;;10.63;;
1380;SDS011;684;48.342;10.096;2022-12-11T14:43:18;24.73;;;14.63;;
1380;SDS011;684;48.342;10.096;2022-12-11T14:45:48;16.37;;;10.77;;
1380;SDS011;684;48.342;10.096;2022-12-11T14:48:20;20.03;;;11.60;;
1380;SDS011;684;48.342;10.096;2022-12-11T14:50:51;19.07;;;10.63;;
1380;SDS011;684;48.342;10.096;2022-12-11T14:53:22;19.00;;;10.23;;
1380;SDS011;684;48.342;10.096;2022-12-11T14:55:51;17.00;;;10.07;;
1380;SDS011;684;48.342;10.096;2022-12-11T14:58:20;18.33;;;11.30;;
1380;SDS011;684;48.342;10.096;2022-12-11T15:00:55;19.83;;;10.57;;
1380;SDS011;684;48.342;10.096;2022-12-11T15:03:23;15.87;;;10.57;;
1380;SDS011;684;48.342;10.096;2022-12-11T15:05:55;26.53;;;12.83;;
1380;SDS011;684;48.342;10.096;2022-12-11T15:08:26;22.47;;;11.43;;
1380;SDS011;684;48.342;10.096;2022-12-11T15:11:00;18.23;;;10.50;;